createdAt,value
2018-08-06T00:01:23.480Z,24.50
2018-08-06T00:03:53.055Z,24.30
2018-08-06T00:06:23.320Z,24.30
2018-08-06T00:08:55.040Z,24.30
2018-08-06T00:11:24.533Z,24.30
2018-08-06T00:13:54.774Z,24.40
2018-08-06T00:16:24.281Z,24.30
2018-08-06T00:18:54.410Z,24.30
2018-08-06T00:21:23.680Z,24.20
2018-08-06T00:23:58.106Z,24.20
2018-08-06T00:26:28.647Z,24.20
2018-08-06T00:28:59.179Z,24.00
2018-08-06T00:31:29.476Z,24.00
2018-08-06T00:34:02.518Z,24.10
2018-08-06T00:36:32.056Z,24.10
2018-08-06T00:39:03.092Z,24.00
2018-08-06T00:41:34.976Z,24.00
2018-08-06T00:44:06.384Z,23.90
2018-08-06T00:46:36.639Z,23.90
2018-08-06T00:49:05.932Z,23.90
2018-08-06T00:51:36.116Z,23.60
2018-08-06T00:54:06.797Z,23.50
2018-08-06T00:56:36.253Z,23.50
2018-08-06T00:59:07.884Z,23.60
2018-08-06T01:01:38.531Z,23.60
2018-08-06T01:04:07.817Z,23.50
2018-08-06T01:06:39.859Z,23.60
2018-08-06T01:09:12.541Z,23.60
2018-08-06T01:11:43.618Z,23.60
2018-08-06T01:14:14.276Z,23.50
2018-08-06T01:16:45.331Z,23.50
2018-08-06T01:19:18.855Z,23.50
2018-08-06T01:21:49.650Z,23.40
2018-08-06T01:24:21.461Z,23.20
2018-08-06T01:26:52.907Z,23.30
2018-08-06T01:29:23.837Z,23.30
2018-08-06T01:31:57.047Z,23.30
2018-08-06T01:34:26.923Z,23.30
2018-08-06T01:36:58.027Z,23.30
2018-08-06T01:39:30.908Z,23.20
2018-08-06T01:42:02.827Z,23.20
2018-08-06T01:44:34.216Z,23.10
2018-08-06T01:47:05.127Z,23.00
2018-08-06T01:49:34.384Z,23.00
2018-08-06T01:52:06.823Z,23.00
2018-08-06T01:54:37.125Z,22.90
2018-08-06T01:57:09.035Z,22.80
2018-08-06T01:59:43.536Z,22.80
2018-08-06T02:02:14.949Z,22.80
2018-08-06T02:04:46.328Z,22.80
2018-08-06T02:07:18.409Z,22.70
2018-08-06T02:09:48.648Z,22.70
2018-08-06T02:12:20.394Z,22.70
2018-08-06T02:14:52.984Z,22.50
2018-08-06T02:17:24.732Z,22.50
2018-08-06T02:19:57.548Z,22.50
2018-08-06T02:24:12.763Z,22.50
2018-08-06T02:29:22.875Z,22.50
2018-08-06T02:31:57.307Z,22.50
2018-08-06T02:34:29.532Z,22.50
2018-08-06T02:37:00.877Z,22.50
2018-08-06T02:39:30.232Z,22.40
2018-08-06T02:41:59.313Z,22.40
2018-08-06T02:44:30.177Z,22.40
2018-08-06T02:47:01.468Z,22.30
2018-08-06T02:49:30.071Z,22.30
2018-08-06T02:52:01.301Z,22.20
2018-08-06T02:54:31.740Z,22.10
2018-08-06T02:57:05.623Z,22.10
2018-08-06T02:59:39.315Z,22.00
2018-08-06T03:02:10.056Z,22.10
2018-08-06T03:04:40.567Z,22.10
2018-08-06T03:07:09.508Z,22.10
2018-08-06T03:09:37.590Z,22.00
2018-08-06T03:12:06.585Z,22.00
2018-08-06T03:14:34.317Z,22.00
2018-08-06T03:17:02.107Z,22.00
2018-08-06T03:19:30.102Z,21.90
2018-08-06T03:21:59.723Z,21.90
2018-08-06T03:24:28.303Z,21.90
2018-08-06T03:26:57.413Z,21.90
2018-08-06T03:29:25.664Z,21.90
2018-08-06T03:31:55.076Z,21.80
2018-08-06T03:34:23.739Z,21.80
2018-08-06T03:36:51.728Z,21.70
2018-08-06T03:39:19.569Z,21.70
2018-08-06T03:41:47.589Z,21.70
2018-08-06T03:44:15.408Z,21.70
2018-08-06T03:46:43.687Z,21.70
2018-08-06T03:49:14.084Z,21.70
2018-08-06T03:51:46.284Z,21.60
2018-08-06T03:54:16.229Z,21.60
2018-08-06T03:56:47.487Z,21.60
2018-08-06T03:59:18.004Z,21.60
2018-08-06T04:01:50.299Z,21.60
2018-08-06T04:04:26.267Z,21.50
2018-08-06T04:07:04.281Z,21.30
2018-08-06T04:09:37.758Z,21.40
2018-08-06T04:12:10.521Z,21.40
2018-08-06T04:14:42.187Z,21.30
2018-08-06T04:17:13.992Z,21.20
2018-08-06T04:19:45.603Z,21.20
2018-08-06T04:22:19.403Z,21.20
2018-08-06T04:24:51.473Z,21.30
2018-08-06T04:27:25.858Z,21.30
2018-08-06T04:29:58.213Z,21.30
2018-08-06T04:32:30.640Z,21.30
2018-08-06T04:35:02.281Z,21.20
2018-08-06T04:37:38.318Z,21.20
2018-08-06T04:40:13.527Z,21.10
2018-08-06T04:42:46.447Z,21.10
2018-08-06T04:45:16.840Z,21.10
2018-08-06T04:47:49.991Z,21.20
2018-08-06T04:50:25.942Z,21.20
2018-08-06T04:52:58.516Z,21.30
2018-08-06T04:55:32.497Z,21.20
2018-08-06T04:58:06.145Z,21.20
2018-08-06T05:00:38.684Z,21.20
2018-08-06T05:03:13.489Z,21.20
2018-08-06T05:05:49.861Z,21.20
2018-08-06T05:08:26.788Z,21.20
2018-08-06T05:11:02.835Z,21.20
2018-08-06T05:13:38.653Z,21.30
2018-08-06T05:16:12.056Z,21.30
2018-08-06T05:18:48.759Z,21.40
2018-08-06T05:21:23.799Z,21.40
2018-08-06T05:24:02.656Z,21.50
2018-08-06T05:26:37.158Z,21.50
2018-08-06T05:29:14.517Z,21.60
2018-08-06T05:31:47.993Z,21.70
2018-08-06T05:34:20.241Z,21.80
2018-08-06T05:36:52.948Z,21.90
2018-08-06T05:39:35.181Z,21.90
2018-08-06T05:42:08.272Z,21.80
2018-08-06T05:44:42.256Z,21.90
2018-08-06T05:47:18.933Z,22.00
2018-08-06T05:49:54.847Z,21.90
2018-08-06T05:52:28.494Z,21.90
2018-08-06T05:55:05.409Z,22.10
2018-08-06T05:57:38.824Z,22.10
2018-08-06T06:00:16.218Z,22.20
2018-08-06T06:02:54.216Z,22.30
2018-08-06T06:05:31.828Z,22.40
2018-08-06T06:08:06.029Z,22.40
2018-08-06T06:10:40.822Z,22.40
2018-08-06T06:13:16.735Z,22.40
2018-08-06T06:15:54.832Z,22.40
2018-08-06T06:18:28.779Z,22.50
2018-08-06T06:21:01.943Z,22.50
2018-08-06T06:23:39.584Z,22.50
2018-08-06T06:26:15.166Z,22.60
2018-08-06T06:28:52.456Z,22.70
2018-08-06T06:31:30.551Z,22.70
2018-08-06T06:34:07.184Z,22.80
2018-08-06T06:36:47.926Z,22.90
2018-08-06T06:39:22.898Z,22.90
2018-08-06T06:42:00.541Z,22.90
2018-08-06T06:44:36.612Z,23.00
2018-08-06T06:47:14.961Z,23.00
2018-08-06T06:49:48.125Z,23.00
2018-08-06T06:52:25.432Z,23.10
2018-08-06T06:55:01.590Z,23.20
2018-08-06T06:57:35.023Z,23.20
2018-08-06T07:00:12.142Z,23.30
2018-08-06T07:02:51.237Z,23.40
2018-08-06T07:05:25.924Z,23.40
2018-08-06T07:07:59.003Z,23.50
2018-08-06T07:10:31.437Z,23.50
2018-08-06T07:13:04.460Z,23.60
2018-08-06T07:15:36.768Z,23.60
2018-08-06T07:18:13.006Z,23.60
2018-08-06T07:20:49.986Z,23.60
2018-08-06T07:35:41.011Z,24.00
2018-08-06T07:38:20.563Z,24.20
2018-08-06T07:41:07.208Z,24.30
2018-08-06T07:57:07.320Z,24.70
2018-08-06T08:20:31.276Z,25.20
2018-08-06T08:23:11.519Z,25.30
2018-08-06T08:25:47.608Z,25.40
2018-08-06T08:28:19.706Z,25.60
2018-08-06T08:30:57.526Z,25.70
2018-08-06T08:33:35.047Z,25.80
2018-08-06T08:36:20.213Z,26.00
2018-08-06T08:38:53.860Z,25.90
2018-08-06T08:41:32.017Z,26.00
2018-08-06T08:44:32.092Z,26.10
2018-08-06T08:47:10.451Z,26.20
2018-08-06T08:49:41.689Z,26.30
2018-08-06T08:52:18.105Z,26.40
2018-08-06T08:54:53.719Z,26.50
2018-08-06T08:57:29.448Z,26.60
2018-08-06T09:00:03.554Z,26.80
2018-08-06T09:02:41.396Z,26.90
2018-08-06T09:05:20.031Z,27.00
2018-08-06T09:10:55.917Z,27.20
2018-08-06T09:13:36.348Z,27.20
2018-08-06T09:38:29.233Z,27.90
2018-08-06T09:50:01.817Z,28.80
2018-08-06T09:52:53.280Z,29.10
2018-08-06T09:55:29.543Z,29.30
2018-08-06T09:58:00.456Z,29.50
2018-08-06T10:00:37.925Z,29.70
2018-08-06T10:03:11.778Z,29.70
2018-08-06T10:05:45.629Z,29.90
2018-08-06T10:08:17.692Z,30.00
2018-08-06T10:10:50.589Z,30.10
2018-08-06T10:13:22.448Z,30.00
2018-08-06T10:15:55.969Z,30.10
2018-08-06T10:21:19.259Z,30.20
2018-08-06T10:23:56.303Z,30.20
2018-08-06T10:26:27.869Z,30.30
2018-08-06T10:29:01.488Z,30.40
2018-08-06T10:31:32.351Z,30.50
2018-08-06T10:34:08.965Z,30.40
2018-08-06T10:36:42.831Z,30.40
2018-08-06T10:39:20.686Z,30.40
2018-08-06T10:41:55.726Z,30.30
2018-08-06T10:44:31.483Z,30.30
2018-08-06T10:47:08.209Z,30.50
2018-08-06T10:49:45.544Z,30.60
2018-08-06T10:52:19.536Z,30.70
2018-08-06T10:54:52.375Z,30.80
2018-08-06T10:57:29.197Z,30.80
2018-08-06T11:00:02.193Z,30.80
2018-08-06T11:02:37.556Z,31.00
2018-08-06T11:05:11.930Z,31.10
2018-08-06T11:07:46.345Z,31.20
2018-08-06T11:10:24.104Z,31.40
2018-08-06T11:12:57.613Z,31.70
2018-08-06T11:15:32.502Z,31.70
2018-08-06T11:18:08.903Z,32.00
2018-08-06T11:30:30.372Z,32.00
2018-08-06T11:33:02.026Z,32.20
2018-08-06T11:42:23.704Z,32.60
2018-08-06T11:44:57.003Z,32.90
2018-08-06T11:47:30.670Z,33.00
2018-08-06T11:50:22.546Z,33.10
2018-08-06T11:52:56.732Z,33.20
2018-08-06T11:55:30.990Z,33.40
2018-08-06T11:58:01.618Z,33.40
2018-08-06T12:00:34.824Z,33.50
2018-08-06T12:03:07.147Z,33.70
2018-08-06T12:05:38.900Z,33.90
2018-08-06T12:08:32.218Z,33.90
2018-08-06T12:11:03.760Z,33.90
2018-08-06T12:32:23.471Z,34.90
2018-08-06T12:40:21.605Z,34.90
2018-08-06T12:42:59.699Z,34.70
2018-08-06T12:45:39.545Z,34.90
2018-08-06T12:48:15.451Z,35.10
2018-08-06T12:50:52.800Z,35.20
2018-08-06T12:53:21.703Z,35.40
2018-08-06T12:55:53.557Z,35.50
2018-08-06T12:58:29.372Z,35.60
2018-08-06T13:01:01.322Z,35.80
2018-08-06T13:03:37.581Z,35.90
2018-08-06T13:18:19.066Z,36.10
2018-08-06T13:20:53.724Z,35.90
2018-08-06T13:32:28.402Z,35.70
2018-08-06T13:35:04.525Z,35.80
2018-08-06T13:37:37.404Z,36.00
2018-08-06T13:59:25.779Z,35.80
2018-08-06T14:01:58.379Z,36.10
2018-08-06T14:04:47.909Z,36.20
2018-08-06T14:07:26.259Z,36.10
2018-08-06T14:13:05.719Z,36.20
2018-08-06T14:16:01.681Z,36.00
2018-08-06T14:18:37.056Z,36.20
2018-08-06T14:21:13.471Z,36.10
2018-08-06T14:30:07.285Z,36.30
2018-08-06T14:50:50.051Z,36.10
2018-08-06T14:53:21.944Z,36.20
2018-08-06T15:02:50.804Z,36.00
2018-08-06T15:05:38.087Z,36.00
2018-08-06T15:08:12.032Z,36.10
2018-08-06T15:10:45.020Z,36.10
2018-08-06T15:13:18.762Z,36.00
2018-08-06T15:15:52.613Z,35.90
2018-08-06T15:18:44.703Z,35.80
2018-08-06T15:21:19.240Z,35.70
2018-08-06T15:24:05.512Z,35.60
2018-08-06T15:26:36.623Z,35.50
2018-08-06T15:29:10.653Z,35.60
2018-08-06T15:31:41.372Z,35.70
2018-08-06T15:37:09.152Z,35.60
2018-08-06T15:39:38.645Z,35.50
2018-08-06T15:42:09.776Z,35.60
2018-08-06T15:44:40.500Z,35.30
2018-08-06T15:47:15.160Z,35.10
2018-08-06T15:49:47.304Z,35.00
2018-08-06T15:52:34.777Z,34.80
2018-08-06T15:58:16.539Z,34.80
2018-08-06T16:00:49.086Z,34.70
2018-08-06T16:04:25.539Z,34.80
2018-08-06T16:07:40.820Z,34.90
2018-08-06T16:10:16.369Z,35.00
2018-08-06T16:13:06.969Z,35.00
2018-08-06T17:07:33.649Z,34.80
2018-08-06T17:10:03.445Z,33.80
2018-08-06T17:12:34.015Z,33.70
2018-08-06T17:15:03.233Z,33.70
2018-08-06T17:17:31.207Z,33.80
2018-08-06T17:19:59.891Z,33.70
2018-08-06T17:22:30.253Z,33.70
2018-08-06T17:25:00.096Z,33.80
2018-08-06T17:27:28.871Z,33.70
2018-08-06T17:29:58.348Z,33.70
2018-08-06T17:32:26.207Z,33.60
2018-08-06T17:34:55.637Z,33.60
2018-08-06T17:37:23.431Z,33.50
2018-08-06T17:39:51.159Z,33.40
2018-08-06T17:42:19.557Z,33.30
2018-08-06T17:44:47.259Z,33.30
2018-08-06T17:47:21.045Z,33.30
2018-08-06T17:49:56.749Z,33.30
2018-08-06T17:52:26.056Z,33.30
2018-08-06T17:54:56.637Z,33.30
2018-08-06T17:57:24.446Z,33.30
2018-08-06T17:59:53.139Z,33.20
2018-08-06T18:02:23.608Z,33.20
2018-08-06T18:04:52.372Z,33.20
2018-08-06T18:07:20.987Z,33.10
2018-08-06T18:09:49.476Z,33.10
2018-08-06T18:12:17.131Z,33.00
2018-08-06T18:14:44.984Z,32.90
2018-08-06T18:17:12.669Z,32.80
2018-08-06T18:19:40.427Z,32.70
2018-08-06T18:22:08.186Z,32.70
2018-08-06T18:24:35.987Z,32.60
2018-08-06T18:27:04.037Z,32.60
2018-08-06T18:29:31.849Z,32.50
2018-08-06T18:31:59.640Z,32.40
2018-08-06T18:34:27.450Z,32.30
2018-08-06T18:36:55.269Z,32.30
2018-08-06T18:39:23.093Z,32.10
2018-08-06T18:41:50.896Z,32.00
2018-08-06T18:44:18.635Z,32.00
2018-08-06T18:46:46.437Z,32.00
2018-08-06T18:49:14.289Z,31.90
2018-08-06T18:51:42.011Z,31.90
2018-08-06T18:54:09.807Z,31.80
2018-08-06T18:56:37.576Z,32.00
2018-08-06T18:59:05.509Z,31.70
2018-08-06T19:01:33.512Z,31.60
2018-08-06T19:04:01.952Z,31.60
2018-08-06T19:06:30.036Z,31.60
2018-08-06T19:34:02.938Z,30.80
2018-08-06T19:36:36.978Z,30.80
2018-08-06T19:39:07.346Z,30.70
2018-08-06T19:41:35.495Z,30.70
2018-08-06T19:44:03.628Z,30.60
2018-08-06T19:46:31.566Z,30.40
2018-08-06T19:48:59.301Z,30.20
2018-08-06T19:51:27.075Z,30.10
2018-08-06T19:53:54.764Z,29.90
2018-08-06T19:56:22.656Z,29.90
2018-08-06T19:58:50.373Z,29.90
2018-08-06T20:01:18.164Z,29.80
2018-08-06T20:03:46.029Z,29.80
2018-08-06T20:06:13.907Z,29.90
2018-08-06T20:08:41.709Z,29.90
2018-08-06T20:11:09.621Z,29.90
2018-08-06T20:13:37.377Z,29.90
2018-08-06T20:16:05.036Z,29.80
2018-08-06T20:18:33.785Z,29.70
2018-08-06T20:21:01.622Z,29.60
2018-08-06T20:23:29.484Z,29.60
2018-08-06T20:25:57.215Z,29.60
2018-08-06T20:28:25.044Z,29.50
2018-08-06T20:30:52.841Z,29.60
2018-08-06T20:33:20.559Z,29.60
2018-08-06T20:35:48.407Z,29.60
2018-08-06T20:38:16.205Z,29.50
2018-08-06T20:40:44.050Z,29.50
2018-08-06T20:43:11.793Z,29.50
2018-08-06T20:45:39.651Z,29.40
2018-08-06T20:48:07.521Z,29.40
2018-08-06T20:50:35.372Z,29.40
2018-08-06T20:53:03.204Z,29.50
2018-08-06T20:55:30.971Z,29.50
2018-08-06T20:57:58.834Z,29.50
2018-08-06T21:00:26.571Z,29.50
2018-08-06T21:02:54.544Z,29.40
2018-08-06T21:05:22.346Z,29.10
2018-08-06T21:07:50.218Z,28.90
2018-08-06T21:10:18.497Z,28.80
2018-08-06T21:12:46.776Z,28.70
2018-08-06T21:15:15.093Z,28.60
2018-08-06T21:17:43.198Z,28.60
2018-08-06T21:20:12.367Z,28.50
2018-08-06T21:22:40.960Z,28.50
2018-08-06T21:25:09.928Z,28.50
2018-08-06T21:27:38.344Z,28.40
2018-08-06T21:30:08.473Z,28.30
2018-08-06T21:32:36.250Z,28.20
2018-08-06T21:35:04.292Z,28.20
2018-08-06T21:37:32.071Z,28.20
2018-08-06T21:39:59.859Z,28.10
2018-08-06T21:42:27.587Z,28.00
2018-08-06T21:44:55.394Z,28.10
2018-08-06T21:47:23.139Z,28.10
2018-08-06T21:49:50.924Z,28.20
2018-08-06T21:52:18.617Z,28.20
2018-08-06T21:54:46.391Z,28.20
2018-08-06T21:57:14.115Z,28.20
2018-08-06T21:59:41.892Z,28.20
2018-08-06T22:02:09.704Z,28.10
2018-08-06T22:04:37.525Z,28.00
2018-08-06T22:07:05.284Z,28.00
2018-08-06T22:09:33.243Z,28.00
2018-08-06T22:12:00.928Z,27.90
2018-08-06T22:14:28.762Z,27.80
2018-08-06T22:16:56.460Z,27.80
2018-08-06T22:19:24.236Z,27.70
2018-08-06T22:21:52.055Z,27.60
2018-08-06T22:24:19.776Z,27.50
2018-08-06T22:26:47.659Z,27.50
2018-08-06T22:29:15.378Z,27.50
2018-08-06T22:31:43.137Z,27.40
2018-08-06T22:34:10.840Z,27.40
2018-08-06T22:36:38.692Z,27.40
2018-08-06T22:39:08.421Z,27.60
2018-08-06T22:41:36.532Z,27.70
2018-08-06T22:44:04.614Z,27.70
2018-08-06T22:46:32.463Z,27.50
2018-08-06T22:49:00.155Z,27.50
2018-08-06T22:51:28.019Z,27.50
2018-08-06T22:53:55.679Z,27.50
2018-08-06T22:56:23.496Z,27.50
2018-08-06T22:58:51.168Z,27.50
2018-08-06T23:01:18.958Z,27.50
2018-08-06T23:03:47.164Z,27.40
2018-08-06T23:06:15.145Z,27.30
2018-08-06T23:08:43.036Z,27.30
2018-08-06T23:11:10.775Z,27.30
2018-08-06T23:13:38.543Z,27.10
2018-08-06T23:16:06.283Z,27.10
2018-08-06T23:18:34.082Z,27.10
2018-08-06T23:21:01.813Z,27.00
2018-08-06T23:23:29.504Z,27.00
2018-08-06T23:25:57.333Z,27.00
2018-08-06T23:28:25.141Z,27.10
2018-08-06T23:30:52.874Z,27.00
2018-08-06T23:33:20.738Z,27.00
2018-08-06T23:35:48.411Z,27.00
2018-08-06T23:38:16.145Z,26.90
2018-08-06T23:40:43.955Z,27.00
2018-08-06T23:43:11.668Z,27.10
2018-08-06T23:45:39.511Z,27.10
2018-08-06T23:48:07.311Z,27.10
2018-08-06T23:50:35.151Z,26.90
2018-08-06T23:53:02.947Z,26.90
2018-08-06T23:55:30.764Z,26.80
2018-08-06T23:57:58.455Z,26.80
